Time;durP1;ratioP1;P1;durP2;ratioP2;P2;SDS_P1;SDS_P2;PMS_P1;PMS_P2;Temp;Humidity;BMP_temperature;BMP_pressure;BME280_temperature;BME280_humidity;BME280_pressure;Samples;Min_cycle;Max_cycle;Signal;HPM_P1;HPM_P2
2023/06/20 00:00:39;;;;;;;8.57;7.87;;;;;;;23.21;100.00;99842.06;5087432;28;20206;-75
2023/06/20 00:03:04;;;;;;;8.10;7.43;;;;;;;23.20;100.00;99852.72;5087448;28;20272;-75
2023/06/20 00:05:30;;;;;;;7.50;6.90;;;;;;;23.18;100.00;99870.44;5095112;28;20181;-75
2023/06/20 00:07:55;;;;;;;6.90;6.40;;;;;;;23.20;100.00;99895.81;5092423;28;20201;-74
2023/06/20 00:10:21;;;;;;;7.20;6.70;;;;;;;23.28;100.00;99913.75;5087227;28;20177;-75
2023/06/20 00:12:46;;;;;;;6.70;6.20;;;;;;;23.34;100.00;99917.78;5097870;28;20628;-75
2023/06/20 00:15:12;;;;;;;6.67;6.17;;;;;;;23.40;100.00;99925.28;5087809;28;20197;-75
2023/06/20 00:17:38;;;;;;;8.00;7.30;;;;;;;23.47;100.00;99939.75;5098572;28;20172;-76
2023/06/20 00:20:07;;;;;;;7.87;7.27;;;;;;;23.52;100.00;99950.84;5086117;27;20177;-74
2023/06/20 00:22:35;;;;;;;8.13;7.43;;;;;;;23.55;100.00;99952.41;5099134;28;20235;-73
2023/06/20 00:25:04;;;;;;;8.70;7.93;;;;;;;23.54;100.00;99963.94;5082359;28;20262;-73
2023/06/20 00:27:30;;;;;;;8.60;7.90;;;;;;;23.48;100.00;99951.16;5087931;28;20185;-73
2023/06/20 00:29:55;;;;;;;10.30;9.17;;;;;;;23.37;100.00;99950.09;5092011;28;20195;-74
2023/06/20 00:32:20;;;;;;;9.43;8.53;;;;;;;23.30;100.00;99943.53;5097334;28;20296;-75
2023/06/20 00:34:46;;;;;;;9.17;8.30;;;;;;;23.23;100.00;99937.84;5089635;28;20679;-73
2023/06/20 00:37:11;;;;;;;9.40;8.50;;;;;;;23.18;100.00;99936.44;5086917;28;20681;-74
2023/06/20 00:39:36;;;;;;;9.23;8.43;;;;;;;23.13;100.00;99927.03;5075176;28;20873;-74
2023/06/20 00:42:03;;;;;;;10.07;9.07;;;;;;;23.07;100.00;99926.59;5085084;28;20219;-74
2023/06/20 00:44:29;;;;;;;10.10;9.20;;;;;;;22.99;100.00;99922.66;5083447;28;20676;-74
2023/06/20 00:46:54;;;;;;;8.60;7.80;;;;;;;22.96;100.00;99924.66;5090521;28;20196;-73
2023/06/20 00:49:20;;;;;;;9.80;8.90;;;;;;;22.91;100.00;99922.34;5090518;28;20730;-75
2023/06/20 00:51:45;;;;;;;9.13;8.33;;;;;;;22.85;100.00;99920.09;5084904;28;20193;-75
2023/06/20 00:54:11;;;;;;;9.50;8.70;;;;;;;22.79;100.00;99918.72;5089891;28;20199;-75
2023/06/20 00:56:37;;;;;;;9.63;8.83;;;;;;;22.73;100.00;99916.50;5087495;28;20272;-74
2023/06/20 00:59:03;;;;;;;10.10;9.17;;;;;;;22.68;100.00;99918.59;5088024;28;20195;-75
2023/06/20 01:01:31;;;;;;;9.83;8.83;;;;;;;22.64;100.00;99910.03;5082129;28;20222;-75
2023/06/20 01:03:58;;;;;;;9.20;8.50;;;;;;;22.62;100.00;99906.66;5080073;28;20192;-75
2023/06/20 01:06:23;;;;;;;8.67;7.97;;;;;;;22.62;100.00;99898.75;5081669;28;20204;-75
2023/06/20 01:09:20;;;;;;;10.90;8.93;;;;;;;22.61;100.00;99907.59;5088644;28;20192;-74
2023/06/20 01:11:57;;;;;;;9.07;8.37;;;;;;;22.59;100.00;99917.41;5095117;28;20904;-73
2023/06/20 01:14:42;;;;;;;9.23;8.53;;;;;;;22.60;100.00;99907.72;5081016;28;20188;-75
2023/06/20 01:17:43;;;;;;;9.13;8.43;;;;;;;22.58;100.00;99915.69;5085330;28;20313;-74
2023/06/20 01:20:14;;;;;;;9.13;8.53;;;;;;;22.57;100.00;99905.25;5083103;28;20216;-74
2023/06/20 01:22:46;;;;;;;8.67;7.97;;;;;;;22.55;100.00;99896.59;5084148;28;20319;-74
2023/06/20 01:25:23;;;;;;;8.63;8.03;;;;;;;22.50;100.00;99889.81;5086098;28;20185;-74
2023/06/20 01:28:03;;;;;;;8.87;8.27;;;;;;;22.45;100.00;99896.34;5088513;28;20192;-75
2023/06/20 01:30:57;;;;;;;8.57;7.87;;;;;;;22.41;100.00;99886.91;5079088;28;20184;-74
2023/06/20 01:33:28;;;;;;;9.07;8.27;;;;;;;22.36;100.00;99889.84;5080987;28;20215;-75
2023/06/20 01:35:55;;;;;;;9.30;8.50;;;;;;;22.32;100.00;99888.34;5084284;28;20185;-75
2023/06/20 01:38:26;;;;;;;9.10;8.50;;;;;;;22.28;100.00;99884.25;5086614;28;20574;-73
2023/06/20 01:40:52;;;;;;;9.03;8.33;;;;;;;22.23;100.00;99882.75;5080635;28;20232;-74
2023/06/20 01:43:19;;;;;;;8.20;7.60;;;;;;;22.18;100.00;99876.91;5084040;28;20185;-75
2023/06/20 01:45:48;;;;;;;8.13;7.63;;;;;;;22.13;100.00;99884.28;5095162;28;20189;-74
2023/06/20 01:48:16;;;;;;;8.63;7.97;;;;;;;22.07;100.00;99877.63;5082971;28;20268;-74
2023/06/20 01:50:43;;;;;;;8.33;7.73;;;;;;;22.03;100.00;99881.38;5081972;28;20216;-74
2023/06/20 01:53:11;;;;;;;8.30;7.70;;;;;;;22.00;100.00;99876.31;5095577;28;20176;-75
2023/06/20 01:55:38;;;;;;;8.30;7.70;;;;;;;21.95;100.00;99878.38;5087250;28;20189;-76
2023/06/20 01:58:05;;;;;;;8.83;8.23;;;;;;;21.89;100.00;99868.25;5094036;28;20551;-74
2023/06/20 02:00:32;;;;;;;8.77;8.13;;;;;;;21.85;100.00;99869.38;5088795;28;20177;-75
2023/06/20 02:02:59;;;;;;;9.57;8.77;;;;;;;21.78;100.00;99868.91;5088451;28;20584;-74
2023/06/20 02:05:31;;;;;;;8.57;7.97;;;;;;;21.72;100.00;99862.25;5084181;28;20224;-75
2023/06/20 02:07:58;;;;;;;8.80;8.20;;;;;;;21.68;100.00;99860.75;5080704;28;20225;-74
2023/06/20 02:10:25;;;;;;;8.83;8.23;;;;;;;21.66;100.00;99861.78;5091791;28;20189;-75
2023/06/20 02:12:52;;;;;;;9.20;8.53;;;;;;;21.62;100.00;99858.50;5088982;28;20604;-74
2023/06/20 02:15:20;;;;;;;9.03;8.33;;;;;;;21.58;100.00;99868.31;5097100;28;20195;-74
2023/06/20 02:17:46;;;;;;;8.30;7.70;;;;;;;21.55;100.00;99867.69;5093567;28;20188;-74
2023/06/20 02:20:12;;;;;;;8.23;7.53;;;;;;;21.52;100.00;99868.72;5095521;28;20196;-74
2023/06/20 02:22:41;;;;;;;7.87;7.27;;;;;;;21.49;100.00;99871.53;5103988;28;20208;-74
2023/06/20 02:25:11;;;;;;;8.53;7.93;;;;;;;21.47;100.00;99879.53;5088252;28;20193;-74
2023/06/20 02:27:39;;;;;;;8.37;7.77;;;;;;;21.43;100.00;99878.03;5090986;28;20193;-74
2023/06/20 02:30:09;;;;;;;8.87;8.17;;;;;;;21.40;100.00;99877.38;5098790;28;20194;-74
2023/06/20 02:32:37;;;;;;;8.70;8.00;;;;;;;21.37;100.00;99877.56;5090036;28;20629;-74
2023/06/20 02:35:05;;;;;;;8.70;8.10;;;;;;;21.34;100.00;99869.84;5088042;28;20201;-75
2023/06/20 02:37:33;;;;;;;8.00;7.50;;;;;;;21.31;100.00;99868.25;5086079;28;20217;-74
2023/06/20 02:39:58;;;;;;;9.30;8.60;;;;;;;21.27;100.00;99867.56;5084246;28;20239;-74
2023/06/20 02:42:24;;;;;;;8.57;7.97;;;;;;;21.24;100.00;99866.91;5088875;28;20721;-74
2023/06/20 02:44:49;;;;;;;9.27;8.50;;;;;;;21.20;100.00;99860.13;5094042;28;20263;-74
2023/06/20 02:47:29;;;;;;;9.60;8.90;;;;;;;21.15;100.00;99866.53;5088871;28;20195;-73
2023/06/20 02:50:07;;;;;;;8.47;7.87;;;;;;;21.11;100.00;99874.69;5084618;28;20196;-76
2023/06/20 02:52:49;;;;;;;9.10;8.37;;;;;;;21.06;100.00;99868.88;5084052;27;20972;-73
2023/06/20 02:55:30;;;;;;;9.57;8.83;;;;;;;21.00;100.00;99877.97;5086265;28;20549;-73
2023/06/20 02:57:59;;;;;;;9.53;8.83;;;;;;;20.97;100.00;99863.19;5083916;28;20194;-74
2023/06/20 03:00:25;;;;;;;9.43;8.70;;;;;;;20.95;100.00;99869.50;5082243;28;20200;-75
2023/06/20 03:03:10;;;;;;;8.77;8.17;;;;;;;20.91;100.00;99871.47;5089304;28;20219;-75
2023/06/20 03:05:42;;;;;;;9.27;8.47;;;;;;;20.90;100.00;99884.69;5087563;28;20230;-76
2023/06/20 03:08:08;;;;;;;8.93;8.33;;;;;;;20.86;100.00;99876.16;5080208;28;20181;-75
2023/06/20 03:10:35;;;;;;;9.20;8.50;;;;;;;20.84;100.00;99872.75;5085733;28;20184;-74
2023/06/20 03:13:04;;;;;;;8.77;8.17;;;;;;;20.83;100.00;99878.94;5086963;28;20644;-74
2023/06/20 03:15:30;;;;;;;9.13;8.53;;;;;;;20.80;100.00;99877.34;5093369;28;20202;-74
2023/06/20 03:17:55;;;;;;;9.37;8.67;;;;;;;20.78;100.00;99886.28;5098834;28;20454;-74
2023/06/20 03:20:20;;;;;;;9.43;8.63;;;;;;;20.76;100.00;99888.97;5089338;28;20191;-74
2023/06/20 03:22:46;;;;;;;9.47;8.67;;;;;;;20.76;100.00;99882.91;5097782;28;20208;-74
2023/06/20 03:25:11;;;;;;;9.93;9.23;;;;;;;20.73;100.00;99885.66;5094519;28;20193;-74
2023/06/20 03:27:36;;;;;;;9.33;8.63;;;;;;;20.70;100.00;99887.53;5084186;28;20281;-75
2023/06/20 03:30:06;;;;;;;8.73;8.03;;;;;;;20.69;100.00;99883.22;5096939;28;20420;-74
2023/06/20 03:32:31;;;;;;;10.27;9.47;;;;;;;20.67;100.00;99887.69;5092108;28;20671;-73
2023/06/20 03:34:57;;;;;;;10.40;9.60;;;;;;;20.64;100.00;99873.88;5083657;28;20191;-72
2023/06/20 03:37:22;;;;;;;12.43;11.43;;;;;;;20.55;100.00;99881.38;5093474;28;20658;-74
2023/06/20 03:39:47;;;;;;;13.47;12.37;;;;;;;20.42;100.00;99880.38;5083177;28;20522;-74
2023/06/20 03:42:12;;;;;;;12.50;11.50;;;;;;;20.34;100.00;99885.22;5081405;28;20219;-74
2023/06/20 03:44:38;;;;;;;14.10;12.87;;;;;;;20.12;100.00;99875.06;5095198;28;20224;-74
2023/06/20 03:47:03;;;;;;;15.77;14.27;;;;;;;20.13;100.00;99874.97;5083411;28;20759;-74
2023/06/20 03:49:29;;;;;;;12.70;11.70;;;;;;;20.15;100.00;99875.72;5094861;28;20208;-75
2023/06/20 03:51:54;;;;;;;12.47;11.47;;;;;;;20.20;100.00;99865.81;5090645;28;20755;-74
2023/06/20 03:54:21;;;;;;;12.10;11.20;;;;;;;20.24;100.00;99877.00;5084987;28;20192;-75
2023/06/20 03:56:46;;;;;;;11.33;10.53;;;;;;;20.32;100.00;99879.19;5086740;28;20184;-74
2023/06/20 03:59:14;;;;;;;10.67;9.77;;;;;;;20.47;100.00;99883.59;5095232;28;20211;-73
2023/06/20 04:01:39;;;;;;;11.83;10.83;;;;;;;20.77;100.00;99889.84;5087007;28;20205;-74
2023/06/20 04:04:05;;;;;;;11.43;10.53;;;;;;;21.04;100.00;99894.41;5090393;28;20188;-75
2023/06/20 04:06:30;;;;;;;11.00;10.20;;;;;;;21.21;100.00;99902.16;5086908;28;20185;-74
2023/06/20 04:08:57;;;;;;;54.87;15.33;;;;;;;21.30;100.00;99906.03;5087581;28;20499;-75
2023/06/20 04:11:23;;;;;;;10.73;9.60;;;;;;;21.34;100.00;99904.06;5085287;28;20204;-75
2023/06/20 04:13:48;;;;;;;10.40;9.50;;;;;;;21.37;100.00;99909.13;5085277;28;20189;-75
2023/06/20 04:16:14;;;;;;;9.20;8.57;;;;;;;21.40;100.00;99908.97;5093757;28;20761;-75
2023/06/20 04:18:40;;;;;;;8.43;7.83;;;;;;;21.41;100.00;99903.59;5099681;28;20690;-75
2023/06/20 04:21:05;;;;;;;8.57;7.97;;;;;;;21.53;100.00;99906.41;5097026;28;20203;-75
2023/06/20 04:23:30;;;;;;;9.60;8.73;;;;;;;21.80;100.00;99911.81;5087433;28;20188;-75
2023/06/20 04:25:56;;;;;;;8.97;8.27;;;;;;;21.93;100.00;99914.53;5090515;28;20200;-75
2023/06/20 04:28:21;;;;;;;9.07;8.37;;;;;;;22.00;100.00;99907.09;5101360;28;20168;-75
2023/06/20 04:30:46;;;;;;;8.90;8.20;;;;;;;22.07;100.00;99905.75;5098006;27;20216;-75
2023/06/20 04:33:11;;;;;;;8.87;8.17;;;;;;;22.17;100.00;99906.00;5094174;28;20258;-75
2023/06/20 04:35:40;;;;;;;9.10;8.40;;;;;;;22.26;100.00;99909.84;5086759;28;20572;-75
2023/06/20 04:38:06;;;;;;;8.80;8.17;;;;;;;22.35;100.00;99898.69;5081242;28;20181;-75
2023/06/20 04:40:31;;;;;;;9.97;9.13;;;;;;;22.65;100.00;99897.69;5078146;28;20177;-74
2023/06/20 04:42:56;;;;;;;9.60;8.90;;;;;;;23.16;100.00;99891.66;5093329;28;20254;-75
2023/06/20 04:45:23;;;;;;;9.80;9.00;;;;;;;23.83;100.00;99900.28;5081410;28;20181;-73
2023/06/20 04:47:50;;;;;;;8.77;7.93;;;;;;;24.44;100.00;99896.84;5082515;28;20715;-75
2023/06/20 04:50:15;;;;;;;9.40;8.70;;;;;;;25.01;100.00;99891.81;5076438;28;20219;-75
2023/06/20 04:52:41;;;;;;;8.93;8.23;;;;;;;25.53;100.00;99894.91;5084794;28;20354;-74
2023/06/20 04:55:06;;;;;;;8.90;8.17;;;;;;;26.12;100.00;99892.97;5082779;28;20277;-75
2023/06/20 04:57:33;;;;;;;8.87;8.00;;;;;;;26.62;100.00;99889.78;5083315;28;20195;-75
2023/06/20 04:59:59;;;;;;;8.07;7.47;;;;;;;26.98;100.00;99894.81;5095373;28;20233;-76
2023/06/20 05:02:25;;;;;;;8.33;7.73;;;;;;;27.29;100.00;99901.03;5087200;28;20205;-75
2023/06/20 05:04:51;;;;;;;7.63;6.90;;;;;;;27.58;100.00;99895.03;5084620;28;20267;-74
2023/06/20 05:07:16;;;;;;;7.70;7.10;;;;;;;27.90;97.51;99895.81;5076681;28;20193;-74
2023/06/20 05:09:41;;;;;;;8.00;7.40;;;;;;;28.27;95.43;99896.06;5086005;28;20195;-75
2023/06/20 05:12:07;;;;;;;7.63;7.05;;;;;;;28.54;93.77;99896.38;5082974;28;20205;-75
2023/06/20 05:14:32;;;;;;;7.40;6.80;;;;;;;28.84;92.78;99902.53;5079519;28;20209;-76
2023/06/20 05:16:57;;;;;;;7.43;6.82;;;;;;;29.13;91.12;99905.13;5083404;28;20201;-75
2023/06/20 05:19:23;;;;;;;7.30;6.70;;;;;;;29.48;89.56;99903.66;5082951;28;20716;-75
2023/06/20 05:21:48;;;;;;;6.78;6.28;;;;;;;29.86;87.68;99900.97;5088724;28;20638;-76
2023/06/20 05:24:14;;;;;;;6.28;5.82;;;;;;;30.24;86.16;99907.09;5103289;28;20217;-76
2023/06/20 05:26:39;;;;;;;6.70;6.10;;;;;;;30.51;85.01;99897.34;5099582;27;20189;-75
2023/06/20 05:29:05;;;;;;;6.82;6.32;;;;;;;30.96;82.75;99903.53;5100054;28;20185;-76
2023/06/20 05:31:30;;;;;;;6.10;5.60;;;;;;;31.15;81.90;99901.72;5101282;28;20261;-76
2023/06/20 05:33:55;;;;;;;6.75;6.15;;;;;;;31.45;80.21;99908.41;5099783;27;20329;-76
2023/06/20 05:36:21;;;;;;;5.43;5.03;;;;;;;31.68;79.66;99909.69;5101481;28;20192;-75
2023/06/20 05:38:48;;;;;;;6.78;6.15;;;;;;;31.96;78.47;99901.44;5097698;27;20176;-75
2023/06/20 05:41:14;;;;;;;6.60;6.00;;;;;;;32.26;77.13;99905.38;5099667;27;20259;-75
2023/06/20 05:43:40;;;;;;;6.30;5.80;;;;;;;32.57;76.54;99903.91;5092060;27;20663;-75
2023/06/20 05:46:05;;;;;;;6.03;5.53;;;;;;;32.86;75.78;99910.63;5106173;28;20190;-75
2023/06/20 05:48:31;;;;;;;7.00;6.30;;;;;;;33.13;75.29;99909.41;5096667;28;20817;-75
2023/06/20 05:50:56;;;;;;;6.40;6.00;;;;;;;33.07;74.86;99910.91;5099181;28;20212;-75
2023/06/20 05:53:23;;;;;;;8.13;7.43;;;;;;;32.94;75.08;99902.56;5093348;28;20184;-76
2023/06/20 05:55:50;;;;;;;6.65;6.15;;;;;;;32.82;74.75;99902.09;5096718;28;20181;-76
2023/06/20 05:58:16;;;;;;;6.30;5.90;;;;;;;32.75;74.71;99899.19;5092132;28;20466;-75
2023/06/20 06:00:42;;;;;;;6.78;6.28;;;;;;;33.02;73.85;99907.94;5089742;28;21822;-75
2023/06/20 06:03:08;;;;;;;8.00;7.35;;;;;;;33.16;73.39;99894.84;5085120;28;20211;-76
2023/06/20 06:05:33;;;;;;;7.30;6.70;;;;;;;32.94;73.56;99899.88;5097757;28;20308;-76
2023/06/20 06:07:58;;;;;;;6.70;6.20;;;;;;;33.25;72.67;99900.00;5086761;28;20192;-76
2023/06/20 06:10:25;;;;;;;7.53;6.90;;;;;;;33.09;72.48;99908.09;5093217;28;20184;-76
2023/06/20 06:12:50;;;;;;;7.95;7.22;;;;;;;32.75;73.13;99904.56;5107997;27;20207;-77
2023/06/20 06:15:16;;;;;;;6.40;5.95;;;;;;;32.85;72.92;99908.97;5093379;27;20256;-75
2023/06/20 06:17:43;;;;;;;7.35;6.85;;;;;;;32.84;73.24;99916.16;5089711;28;20195;-76
2023/06/20 06:20:12;;;;;;;6.95;6.45;;;;;;;33.07;72.53;99905.56;5095559;28;20185;-76
2023/06/20 06:22:38;;;;;;;7.35;6.75;;;;;;;33.26;72.61;99904.38;5098482;28;20880;-76
2023/06/20 06:25:06;;;;;;;6.22;5.82;;;;;;;33.49;71.65;99908.19;5105047;27;20249;-76
2023/06/20 06:27:34;;;;;;;6.20;5.80;;;;;;;33.76;71.20;99911.44;5089215;27;20194;-76
2023/06/20 06:29:59;;;;;;;7.05;6.45;;;;;;;33.93;70.55;99909.53;5098692;27;20260;-76
2023/06/20 06:32:27;;;;;;;7.30;6.13;;;;;;;34.24;69.85;99908.66;5090872;28;20276;-77
2023/06/20 06:34:53;;;;;;;7.00;6.50;;;;;;;34.21;70.12;99909.88;5086310;28;20589;-76
2023/06/20 06:37:19;;;;;;;6.57;6.07;;;;;;;34.34;69.42;99920.84;5082500;28;20190;-77
2023/06/20 06:39:44;;;;;;;6.57;6.18;;;;;;;34.07;69.42;99907.94;5086473;28;20627;-76
2023/06/20 06:42:10;;;;;;;6.43;5.97;;;;;;;34.20;69.96;99909.00;5092574;28;20306;-76
2023/06/20 06:44:35;;;;;;;6.55;6.07;;;;;;;34.33;69.56;99900.38;5083181;28;20216;-77
2023/06/20 06:47:01;;;;;;;6.32;5.93;;;;;;;34.39;69.13;99900.69;5089221;28;20188;-76
2023/06/20 06:49:27;;;;;;;5.82;5.43;;;;;;;34.59;68.51;99907.25;5087974;28;20296;-76
2023/06/20 06:51:53;;;;;;;6.63;5.93;;;;;;;34.64;68.71;99906.69;5087801;28;20228;-76
2023/06/20 06:54:19;;;;;;;6.53;6.03;;;;;;;34.73;68.07;99896.72;5077942;28;20190;-76
2023/06/20 06:56:45;;;;;;;7.22;6.63;;;;;;;34.86;66.54;99898.78;5080853;28;20934;-75
2023/06/20 06:59:10;;;;;;;6.63;6.05;;;;;;;34.98;66.86;99904.59;5086719;28;20288;-76
2023/06/20 07:01:36;;;;;;;7.40;6.90;;;;;;;34.46;66.89;99899.81;5090454;28;20232;-76
2023/06/20 07:04:01;;;;;;;7.93;7.40;;;;;;;33.89;67.44;99895.63;5082194;28;20189;-76
2023/06/20 07:06:26;;;;;;;6.32;5.93;;;;;;;33.98;68.33;99904.47;5094042;28;20212;-75
2023/06/20 07:08:52;;;;;;;6.88;6.28;;;;;;;34.17;68.38;99900.47;5086832;28;20185;-76
2023/06/20 07:11:18;;;;;;;7.18;6.47;;;;;;;34.43;67.70;99900.16;5099108;28;20283;-76
2023/06/20 07:13:43;;;;;;;8.73;8.00;;;;;;;34.38;66.68;99905.22;5094097;28;20241;-77
2023/06/20 07:16:09;;;;;;;6.13;5.63;;;;;;;34.29;67.07;99899.06;5098130;28;20571;-75
2023/06/20 07:18:34;;;;;;;6.47;6.03;;;;;;;34.27;67.37;99903.75;5090183;28;20289;-76
2023/06/20 07:21:02;;;;;;;6.80;6.30;;;;;;;34.51;67.45;99901.97;5098252;28;20594;-76
2023/06/20 07:23:28;;;;;;;7.10;6.50;;;;;;;34.32;67.02;99904.06;5098128;28;20211;-76
2023/06/20 07:25:53;;;;;;;6.72;6.18;;;;;;;34.57;66.62;99909.28;5099616;28;20656;-76
2023/06/20 07:28:18;;;;;;;8.32;7.45;;;;;;;34.40;66.56;99905.03;5092874;28;20185;-76
2023/06/20 07:30:44;;;;;;;7.43;6.93;;;;;;;34.12;67.84;99914.44;5107621;28;20201;-76
2023/06/20 07:33:09;;;;;;;7.57;6.97;;;;;;;34.40;66.55;99913.09;5085941;28;20186;-76
2023/06/20 07:35:34;;;;;;;7.60;7.03;;;;;;;34.15;67.11;99910.56;5092482;28;20196;-76
2023/06/20 07:38:00;;;;;;;8.35;7.50;;;;;;;33.88;67.93;99907.34;5082089;28;20192;-76
2023/06/20 07:40:25;;;;;;;10.30;9.50;;;;;;;32.88;69.11;99920.16;5097380;28;20744;-75
2023/06/20 07:42:50;;;;;;;10.05;9.30;;;;;;;31.58;73.17;99909.81;5099039;28;20286;-76
2023/06/20 07:45:16;;;;;;;10.43;9.63;;;;;;;30.93;74.72;99911.03;5096969;28;20176;-76
2023/06/20 07:47:41;;;;;;;9.90;9.18;;;;;;;30.30;77.66;99911.00;5104898;28;20200;-75
2023/06/20 07:50:07;;;;;;;9.18;8.38;;;;;;;30.22;76.32;99905.56;5089827;28;20217;-74
2023/06/20 07:52:33;;;;;;;8.63;8.02;;;;;;;30.24;75.92;99906.25;5085353;28;20205;-76
2023/06/20 07:54:58;;;;;;;10.77;9.98;;;;;;;29.63;77.56;99904.03;5084107;28;20979;-76
2023/06/20 07:57:24;;;;;;;10.07;9.27;;;;;;;28.83;80.03;99912.34;5095106;28;20188;-75
2023/06/20 07:59:49;;;;;;;8.38;7.78;;;;;;;29.44;79.25;99910.28;5085812;28;20185;-74
2023/06/20 08:02:14;;;;;;;10.73;9.82;;;;;;;29.62;79.23;99905.03;5104460;28;20209;-76
2023/06/20 08:04:40;;;;;;;9.68;8.88;;;;;;;29.82;78.00;99907.59;5096479;28;20259;-75
2023/06/20 08:07:05;;;;;;;10.23;9.23;;;;;;;29.80;77.67;99901.56;5090752;28;20272;-75
2023/06/20 08:09:31;;;;;;;10.65;9.65;;;;;;;29.60;77.00;99895.47;5086815;28;20319;-75
2023/06/20 08:11:56;;;;;;;9.73;9.02;;;;;;;29.53;77.72;99910.41;5095224;28;20196;-75
2023/06/20 08:14:22;;;;;;;9.18;8.48;;;;;;;30.02;77.48;99899.50;5100247;28;20180;-76
2023/06/20 08:16:47;;;;;;;9.38;8.57;;;;;;;30.47;77.16;99895.97;5099993;28;20192;-76
2023/06/20 08:19:12;;;;;;;9.45;8.57;;;;;;;30.22;76.09;99911.75;5105028;28;20184;-76
2023/06/20 08:21:38;;;;;;;8.50;7.80;;;;;;;31.13;73.95;99901.88;5090370;28;20217;-75
2023/06/20 08:24:04;;;;;;;10.10;9.15;;;;;;;31.11;72.24;99892.28;5092008;28;20225;-76
2023/06/20 08:26:30;;;;;;;8.05;7.35;;;;;;;31.65;72.96;99889.41;5087143;28;20182;-76
2023/06/20 08:28:55;;;;;;;9.00;8.15;;;;;;;31.75;72.55;99889.31;5099515;28;20187;-76
2023/06/20 08:31:20;;;;;;;7.75;7.15;;;;;;;32.15;71.81;99884.25;5085914;28;20909;-76
2023/06/20 08:33:46;;;;;;;8.10;7.28;;;;;;;32.64;70.87;99888.84;5089981;28;20272;-74
2023/06/20 08:36:12;;;;;;;7.70;7.10;;;;;;;32.77;71.03;99885.66;5081713;28;20897;-75
2023/06/20 08:38:38;;;;;;;7.50;6.80;;;;;;;32.96;69.92;99879.13;5086149;28;20268;-75
2023/06/20 08:41:07;;;;;;;7.97;7.38;;;;;;;33.18;69.96;99877.56;5082642;28;20204;-76
2023/06/20 08:43:34;;;;;;;7.25;6.78;;;;;;;32.88;66.85;99884.50;5085028;28;20562;-76
2023/06/20 08:45:59;;;;;;;7.30;6.80;;;;;;;32.79;67.50;99880.97;5098709;28;20290;-74
2023/06/20 08:48:24;;;;;;;9.07;8.45;;;;;;;31.94;70.21;99872.16;5087133;28;20291;-75
2023/06/20 08:50:51;;;;;;;7.80;7.20;;;;;;;32.29;70.67;99874.78;5086538;28;20208;-75
2023/06/20 08:53:17;;;;;;;8.85;8.25;;;;;;;32.48;69.67;99876.28;5096004;28;20184;-76
2023/06/20 08:55:44;;;;;;;6.93;6.50;;;;;;;32.27;68.26;99869.56;5092891;28;20280;-74
2023/06/20 08:58:10;;;;;;;6.65;6.15;;;;;;;32.14;69.76;99864.69;5088054;28;20192;-75
2023/06/20 09:00:37;;;;;;;8.32;7.63;;;;;;;31.91;69.98;99867.16;5082539;28;20193;-74
2023/06/20 09:03:02;;;;;;;8.05;7.45;;;;;;;31.95;70.69;99863.13;5086970;28;20592;-75
2023/06/20 09:05:32;;;;;;;7.65;7.05;;;;;;;32.00;68.30;99851.94;5089850;28;20192;-76
2023/06/20 09:07:58;;;;;;;7.72;7.13;;;;;;;31.84;69.21;99853.56;5095769;28;20665;-74
2023/06/20 09:10:25;;;;;;;7.75;7.15;;;;;;;31.71;69.40;99863.91;5087959;28;20185;-74
2023/06/20 09:12:51;;;;;;;8.18;7.47;;;;;;;31.56;70.31;99858.31;5087576;28;20196;-74
2023/06/20 09:15:19;;;;;;;8.18;7.38;;;;;;;31.57;69.59;99855.47;5077733;28;20236;-75
2023/06/20 09:17:49;;;;;;;8.82;8.23;;;;;;;31.63;69.02;99845.94;5099064;28;20188;-74
2023/06/20 09:20:14;;;;;;;8.43;7.63;;;;;;;31.32;70.80;99850.03;5084675;28;20573;-76
2023/06/20 09:22:41;;;;;;;9.50;7.63;;;;;;;31.19;69.37;99846.09;5088522;28;20213;-75
2023/06/20 09:25:10;;;;;;;13.15;8.63;;;;;;;31.19;70.12;99848.78;5074987;28;20188;-75
2023/06/20 09:27:37;;;;;;;8.00;7.20;;;;;;;31.25;70.08;99845.47;5083598;28;20220;-75
2023/06/20 09:30:03;;;;;;;7.38;6.78;;;;;;;31.30;67.39;99848.50;5071497;28;20196;-74
2023/06/20 09:32:34;;;;;;;9.05;8.35;;;;;;;30.92;69.23;99859.47;5075808;28;20293;-75
2023/06/20 09:35:02;;;;;;;8.40;7.80;;;;;;;30.87;70.38;99851.88;5075784;28;20246;-75
2023/06/20 09:37:51;;;;;;;14.15;8.93;;;;;;;31.00;69.44;99845.31;5076097;28;20177;-75
2023/06/20 09:40:18;;;;;;;9.98;8.15;;;;;;;30.98;68.50;99850.81;5077530;28;20181;-75
2023/06/20 09:42:45;;;;;;;8.20;7.50;;;;;;;31.00;68.87;99838.13;5072340;28;20273;-75
2023/06/20 09:45:13;;;;;;;7.88;7.18;;;;;;;31.07;69.28;99830.31;5080248;28;20552;-75
2023/06/20 09:47:39;;;;;;;7.50;7.00;;;;;;;30.99;70.12;99838.28;5072450;28;20190;-75
2023/06/20 09:50:05;;;;;;;7.78;7.07;;;;;;;31.17;67.57;99830.22;5071666;28;20188;-75
2023/06/20 09:52:40;;;;;;;7.78;7.10;;;;;;;31.28;68.42;99832.63;5089943;28;20224;-74
2023/06/20 09:55:11;;;;;;;6.95;6.45;;;;;;;31.42;68.44;99827.66;5082670;28;20181;-75
2023/06/20 09:57:40;;;;;;;7.13;6.53;;;;;;;31.46;68.36;99831.69;5082530;28;20800;-75
2023/06/20 10:00:12;;;;;;;6.95;6.30;;;;;;;31.55;68.09;99833.38;5080763;28;20207;-76
2023/06/20 10:02:39;;;;;;;7.95;6.93;;;;;;;31.53;66.59;99830.06;5087471;28;20273;-76
2023/06/20 10:05:06;;;;;;;7.45;6.75;;;;;;;31.18;66.03;99834.59;5089377;28;20181;-77
2023/06/20 10:07:33;;;;;;;7.50;6.80;;;;;;;31.28;66.28;99835.28;5088550;28;20228;-75
2023/06/20 10:10:00;;;;;;;7.35;6.75;;;;;;;31.34;66.33;99836.47;5078867;28;20684;-76
2023/06/20 10:12:26;;;;;;;7.20;6.68;;;;;;;31.48;65.97;99827.84;5081900;28;20204;-75
2023/06/20 10:14:52;;;;;;;7.30;6.70;;;;;;;31.47;66.40;99833.38;5097948;28;20204;-75
2023/06/20 10:17:30;;;;;;;7.00;6.50;;;;;;;31.61;66.86;99830.06;5092066;28;20656;-75
2023/06/20 10:19:57;;;;;;;7.10;6.60;;;;;;;31.74;66.35;99831.47;5081769;28;20188;-75
2023/06/20 10:22:37;;;;;;;6.85;6.25;;;;;;;31.87;66.14;99823.81;5097195;28;20213;-77
2023/06/20 10:25:11;;;;;;;7.78;6.68;;;;;;;32.01;66.06;99829.50;5096176;27;20201;-75
2023/06/20 10:27:53;;;;;;;6.85;6.32;;;;;;;32.13;65.61;99828.22;5081800;28;20195;-76
2023/06/20 10:30:50;;;;;;;6.70;6.07;;;;;;;32.07;65.60;99816.31;5092575;28;20275;-75
2023/06/20 10:33:43;;;;;;;6.63;6.13;;;;;;;32.25;66.40;99822.53;5090192;28;20973;-76
2023/06/20 10:36:13;;;;;;;7.45;6.90;;;;;;;32.24;65.02;99821.69;5098633;28;20184;-75
2023/06/20 10:38:50;;;;;;;7.30;6.60;;;;;;;32.12;65.80;99825.69;5080367;28;20185;-76
2023/06/20 10:41:28;;;;;;;6.80;6.30;;;;;;;32.13;66.07;99825.53;5088585;28;20884;-75
2023/06/20 10:43:54;;;;;;;7.88;7.10;;;;;;;32.18;65.69;99817.00;5087980;28;20266;-75
2023/06/20 10:46:28;;;;;;;7.75;7.05;;;;;;;32.02;65.58;99812.47;5090858;28;20285;-75
2023/06/20 10:48:53;;;;;;;7.55;6.95;;;;;;;32.28;65.51;99809.66;5087266;28;20229;-75
2023/06/20 10:51:18;;;;;;;7.35;6.75;;;;;;;32.35;64.73;99805.34;5096788;28;20199;-75
2023/06/20 10:53:44;;;;;;;6.43;6.03;;;;;;;32.41;64.83;99805.66;5101290;28;20259;-75
2023/06/20 10:56:21;;;;;;;7.78;7.10;;;;;;;32.49;64.28;99805.66;5108502;28;20184;-76
2023/06/20 10:58:48;;;;;;;7.57;6.90;;;;;;;32.55;64.46;99804.13;5093710;28;20235;-76
2023/06/20 11:01:16;;;;;;;7.60;6.90;;;;;;;32.35;63.71;99805.34;5091467;28;20196;-77
2023/06/20 11:03:43;;;;;;;7.40;6.80;;;;;;;32.13;63.92;99800.59;5103228;28;20184;-76
2023/06/20 11:06:13;;;;;;;9.52;8.77;;;;;;;32.24;65.01;99802.94;5089095;28;20185;-76
2023/06/20 11:08:43;;;;;;;9.13;8.40;;;;;;;32.27;65.43;99799.97;5085872;28;20653;-76
2023/06/20 11:11:08;;;;;;;7.47;6.72;;;;;;;31.88;62.42;99804.09;5093127;28;20239;-76
2023/06/20 11:13:39;;;;;;;8.15;7.35;;;;;;;32.02;61.67;99802.59;5085763;28;20205;-76
2023/06/20 11:16:04;;;;;;;6.63;6.13;;;;;;;32.30;62.92;99806.81;5090639;28;20188;-76
2023/06/20 11:18:29;;;;;;;6.75;6.15;;;;;;;32.41;63.65;99801.16;5091859;28;20191;-77
2023/06/20 11:20:56;;;;;;;7.35;6.68;;;;;;;32.62;62.35;99799.75;5094196;28;20200;-76
2023/06/20 11:23:21;;;;;;;7.03;6.15;;;;;;;32.67;63.04;99800.91;5089945;28;20270;-75
2023/06/20 11:25:47;;;;;;;6.50;6.00;;;;;;;32.83;62.90;99793.88;5080338;28;20681;-76
2023/06/20 11:28:16;;;;;;;6.80;6.20;;;;;;;32.83;63.27;99800.09;5077382;28;20193;-76
2023/06/20 11:30:45;;;;;;;6.53;5.93;;;;;;;32.93;62.47;99804.41;5088530;28;20195;-76